createdAt,value
2023-04-22T00:03:58.061Z,53.41
2023-04-22T00:09:20.225Z,53.92
2023-04-22T00:14:42.113Z,53.85
2023-04-22T00:20:04.270Z,54.91
2023-04-22T00:25:26.150Z,55.25
2023-04-22T00:30:47.987Z,55.92
2023-04-22T00:36:09.923Z,57.78
2023-04-22T00:41:32.793Z,57.97
2023-04-22T00:46:55.674Z,57.20
2023-04-22T00:52:17.596Z,57.35
2023-04-22T00:57:40.411Z,58.30
2023-04-22T01:03:02.519Z,58.34
2023-04-22T01:08:28.752Z,58.17
2023-04-22T01:13:51.418Z,58.80
2023-04-22T01:19:13.912Z,58.81
2023-04-22T01:24:35.914Z,59.15
2023-04-22T01:29:57.886Z,59.08
2023-04-22T01:35:19.879Z,60.34
2023-04-22T01:40:41.751Z,60.03
2023-04-22T01:46:04.872Z,60.39
2023-04-22T01:51:26.795Z,60.84
2023-04-22T01:56:53.818Z,61.63
2023-04-22T02:02:15.895Z,61.78
2023-04-22T02:07:37.896Z,62.02
2023-04-22T02:12:59.814Z,62.54
2023-04-22T02:18:21.724Z,63.25
2023-04-22T02:23:43.705Z,63.37
2023-04-22T02:29:05.591Z,63.55
2023-04-22T02:34:27.528Z,63.89
2023-04-22T02:39:50.001Z,64.45
2023-04-22T02:45:11.918Z,64.52
2023-04-22T02:50:33.946Z,65.18
2023-04-22T02:55:55.786Z,65.17
2023-04-22T03:01:17.761Z,65.74
2023-04-22T03:06:39.781Z,66.27
2023-04-22T03:12:01.615Z,66.51
2023-04-22T03:17:23.478Z,65.80
2023-04-22T03:22:45.412Z,66.42
2023-04-22T03:28:07.291Z,67.12
2023-04-22T03:33:29.357Z,66.56
2023-04-22T03:38:51.328Z,66.29
2023-04-22T03:44:13.140Z,66.63
2023-04-22T03:49:34.983Z,66.28
2023-04-22T03:54:56.885Z,64.98
2023-04-22T04:00:18.908Z,63.00
2023-04-22T04:05:40.881Z,60.51
2023-04-22T04:11:02.801Z,59.67
2023-04-22T04:16:24.754Z,56.97
2023-04-22T04:21:46.602Z,56.35
2023-04-22T04:27:08.458Z,54.25
2023-04-22T04:32:30.371Z,53.67
2023-04-22T04:37:52.191Z,51.84
2023-04-22T04:43:14.088Z,49.24
2023-04-22T04:48:36.192Z,50.08
2023-04-22T04:53:58.473Z,48.72
2023-04-22T04:59:20.293Z,47.85
2023-04-22T05:04:42.266Z,48.87
2023-04-22T05:10:04.513Z,45.96
2023-04-22T05:15:26.649Z,44.66
2023-04-22T05:20:48.585Z,43.00
2023-04-22T05:26:10.437Z,41.24
2023-04-22T05:31:32.326Z,41.13
2023-04-22T05:36:54.813Z,38.41
2023-04-22T05:42:16.673Z,36.32
2023-04-22T05:47:38.660Z,35.34
2023-04-22T05:53:00.490Z,32.74
2023-04-22T05:58:22.357Z,33.04
2023-04-22T06:03:44.503Z,29.77
2023-04-22T06:09:06.610Z,29.20
2023-04-22T06:14:28.424Z,26.49
2023-04-22T06:19:50.237Z,25.92
2023-04-22T06:25:12.125Z,24.43
2023-04-22T06:30:33.986Z,21.74
2023-04-22T06:35:55.838Z,22.93
2023-04-22T06:41:18.194Z,21.38
2023-04-22T06:46:40.113Z,20.33
2023-04-22T06:52:02.086Z,20.86
2023-04-22T06:57:24.017Z,19.21
2023-04-22T07:02:45.983Z,17.88
2023-04-22T07:08:07.984Z,17.66
2023-04-22T07:13:29.979Z,17.86
2023-04-22T07:18:51.934Z,18.86
2023-04-22T07:24:14.375Z,16.80
2023-04-22T07:29:39.684Z,17.96
2023-04-22T07:35:02.064Z,18.00
2023-04-22T07:40:23.909Z,17.29
2023-04-22T07:45:45.843Z,16.55
2023-04-22T07:51:07.713Z,17.31
2023-04-22T07:56:29.579Z,16.98
2023-04-22T08:01:51.456Z,16.26
2023-04-22T08:07:31.772Z,15.88
2023-04-22T08:12:55.084Z,15.38
2023-04-22T08:18:16.961Z,16.24
2023-04-22T08:23:38.911Z,15.37
2023-04-22T08:29:01.019Z,16.45
2023-04-22T08:34:22.853Z,16.56
2023-04-22T08:39:44.714Z,16.02
2023-04-22T08:45:06.854Z,15.75
2023-04-22T08:50:28.944Z,16.95
2023-04-22T08:55:51.951Z,17.01
2023-04-22T09:01:14.210Z,15.76
2023-04-22T09:06:38.036Z,16.83
2023-04-22T09:11:59.900Z,19.01
2023-04-22T09:17:33.098Z,18.99
2023-04-22T09:22:57.359Z,21.68
2023-04-22T09:28:19.674Z,24.19
2023-04-22T09:33:41.663Z,22.76
2023-04-22T09:39:06.189Z,23.09
2023-04-22T09:44:28.562Z,23.40
2023-04-22T09:49:50.731Z,22.70
2023-04-22T09:55:12.652Z,23.31
2023-04-22T10:00:37.509Z,23.47
2023-04-22T10:05:59.379Z,23.23
2023-04-22T10:11:21.310Z,23.76
2023-04-22T10:16:46.258Z,24.88
2023-04-22T10:22:10.951Z,25.50
2023-04-22T10:27:32.900Z,25.62
2023-04-22T10:32:54.912Z,26.04
2023-04-22T10:38:16.846Z,26.27
2023-04-22T10:43:47.971Z,26.90
2023-04-22T10:49:23.743Z,27.18
2023-04-22T10:54:45.542Z,28.14
2023-04-22T11:00:24.486Z,27.73
2023-04-22T11:05:46.747Z,28.19
2023-04-22T11:11:10.810Z,27.68
2023-04-22T11:16:33.317Z,27.02
2023-04-22T11:21:55.459Z,27.21
2023-04-22T11:27:18.896Z,28.31
2023-04-22T11:32:45.501Z,27.47
2023-04-22T11:38:07.325Z,27.48
2023-04-22T11:43:29.140Z,27.12
2023-04-22T11:48:50.941Z,26.91
2023-04-22T11:54:12.750Z,26.52
2023-04-22T11:59:35.268Z,26.11
2023-04-22T12:04:58.785Z,25.90
2023-04-22T12:10:23.408Z,25.72
2023-04-22T12:15:45.419Z,25.85
2023-04-22T12:21:07.174Z,25.60
2023-04-22T12:26:29.040Z,27.14
2023-04-22T12:31:50.871Z,27.23
2023-04-22T12:37:12.773Z,26.39
2023-04-22T12:42:34.574Z,26.36
2023-04-22T12:47:56.384Z,26.45
2023-04-22T12:53:18.309Z,25.79
2023-04-22T12:58:40.154Z,26.20
2023-04-22T13:04:02.158Z,25.42
2023-04-22T13:09:25.370Z,26.04
2023-04-22T13:14:47.245Z,26.12
2023-04-22T13:20:09.306Z,24.79
2023-04-22T13:25:31.277Z,25.40
2023-04-22T13:30:54.178Z,25.80
2023-04-22T13:36:15.968Z,25.80
2023-04-22T13:41:37.765Z,25.58
2023-04-22T13:47:01.383Z,25.72
2023-04-22T13:52:24.537Z,26.04
2023-04-22T13:57:46.351Z,25.37
2023-04-22T14:03:08.274Z,25.80
2023-04-22T14:08:30.286Z,25.32
2023-04-22T14:13:52.124Z,25.75
2023-04-22T14:19:13.969Z,25.78
2023-04-22T14:24:35.802Z,25.76
2023-04-22T14:29:57.668Z,25.60
2023-04-22T14:35:19.579Z,25.16
2023-04-22T14:40:41.415Z,24.89
2023-04-22T14:46:03.544Z,25.49
2023-04-22T14:51:25.408Z,25.43
2023-04-22T14:56:47.267Z,25.42
2023-04-22T15:02:13.850Z,24.85
2023-04-22T15:07:35.669Z,25.72
2023-04-22T15:12:57.562Z,25.74
2023-04-22T15:18:19.370Z,25.87
2023-04-22T15:23:41.171Z,25.80
2023-04-22T15:29:03.403Z,26.54
2023-04-22T15:34:25.521Z,26.84
2023-04-22T15:45:09.422Z,26.77
2023-04-22T15:50:31.496Z,26.82
2023-04-22T15:55:53.318Z,26.87
2023-04-22T16:01:19.410Z,27.20
2023-04-22T16:06:41.807Z,26.68
2023-04-22T16:12:03.921Z,26.82
2023-04-22T16:17:25.773Z,27.08
2023-04-22T16:22:47.789Z,27.17
2023-04-22T16:28:09.788Z,27.06
2023-04-22T16:33:32.874Z,27.68
2023-04-22T16:38:54.672Z,27.38
2023-04-22T16:44:16.549Z,28.00
2023-04-22T16:49:38.593Z,27.90
2023-04-22T16:55:00.715Z,27.95
2023-04-22T17:00:22.578Z,28.21
2023-04-22T17:05:44.471Z,28.13
2023-04-22T17:11:06.381Z,28.07
2023-04-22T17:16:28.358Z,27.87
2023-04-22T17:21:50.484Z,27.93
2023-04-22T17:27:12.296Z,27.84
2023-04-22T17:32:34.734Z,28.09
2023-04-22T17:37:56.625Z,28.30
2023-04-22T17:43:18.465Z,29.38
2023-04-22T17:48:40.415Z,29.82
2023-04-22T17:54:02.318Z,30.24
2023-04-22T17:59:24.149Z,30.76
2023-04-22T18:04:46.462Z,30.98
2023-04-22T18:10:09.253Z,31.28
2023-04-22T18:15:31.177Z,31.86
2023-04-22T18:20:53.046Z,32.02
2023-04-22T18:26:14.893Z,32.31
2023-04-22T18:31:36.804Z,32.62
2023-04-22T18:36:58.872Z,33.13
2023-04-22T18:42:20.737Z,33.25
2023-04-22T18:47:42.938Z,33.70
2023-04-22T18:53:04.879Z,34.42
2023-04-22T18:58:26.761Z,34.51
2023-04-22T19:03:48.835Z,34.33
2023-04-22T19:09:10.720Z,34.56
2023-04-22T19:14:32.620Z,35.04
2023-04-22T19:19:55.025Z,35.05
2023-04-22T19:25:17.028Z,35.47
2023-04-22T19:30:38.864Z,35.50
2023-04-22T19:36:00.698Z,36.23
2023-04-22T19:41:22.572Z,36.34
2023-04-22T19:46:44.452Z,36.92
2023-04-22T19:52:08.946Z,37.22
2023-04-22T19:57:30.944Z,37.55
2023-04-22T20:02:53.096Z,37.84
2023-04-22T20:08:17.096Z,38.07
2023-04-22T20:13:39.612Z,38.31
2023-04-22T20:19:01.660Z,38.79
2023-04-22T20:24:24.543Z,39.17
2023-04-22T20:29:46.803Z,39.77
2023-04-22T20:35:09.166Z,39.84
2023-04-22T20:40:33.677Z,40.37
2023-04-22T20:45:55.619Z,40.94
2023-04-22T20:51:17.613Z,41.43
2023-04-22T20:56:39.451Z,41.72
2023-04-22T21:02:02.570Z,41.87
2023-04-22T21:07:26.169Z,42.10
2023-04-22T21:12:48.392Z,42.47
2023-04-22T21:18:10.467Z,43.34
2023-04-22T21:23:33.177Z,43.96
2023-04-22T21:28:55.706Z,44.27
2023-04-22T21:34:17.563Z,44.88
2023-04-22T21:39:40.377Z,44.97
2023-04-22T21:45:02.253Z,45.40
2023-04-22T21:50:24.078Z,46.37
2023-04-22T21:55:46.268Z,46.88
2023-04-22T22:01:08.153Z,47.21
2023-04-22T22:06:30.594Z,47.46
2023-04-22T22:11:52.424Z,47.43
2023-04-22T22:17:14.284Z,47.52
2023-04-22T22:22:36.137Z,47.91
2023-04-22T22:27:57.986Z,47.87
2023-04-22T22:33:19.825Z,48.30
2023-04-22T22:38:41.713Z,48.67
2023-04-22T22:44:03.639Z,48.75
2023-04-22T22:49:25.574Z,48.97
2023-04-22T22:54:48.743Z,49.32
2023-04-22T23:00:10.991Z,49.50
2023-04-22T23:05:32.830Z,49.61
2023-04-22T23:10:54.625Z,49.80
2023-04-22T23:16:16.725Z,50.42
2023-04-22T23:21:40.167Z,50.79
2023-04-22T23:27:02.363Z,51.14
2023-04-22T23:32:25.077Z,51.83
2023-04-22T23:37:47.487Z,51.90
2023-04-22T23:43:09.452Z,52.79
2023-04-22T23:48:31.368Z,53.43
2023-04-22T23:53:53.204Z,54.13
2023-04-22T23:59:15.256Z,54.70
